sensor_id;sensor_type;location;lat;lon;timestamp;P1;durP1;ratioP1;P2;durP2;ratioP2
49396;SDS011;35615;41.410;2.194;2023-02-18T00:00:56;28.98;;;17.58;;
49396;SDS011;35615;41.410;2.194;2023-02-18T00:03:35;31.00;;;16.23;;
49396;SDS011;35615;41.410;2.194;2023-02-18T00:09:08;30.52;;;16.85;;
49396;SDS011;35615;41.410;2.194;2023-02-18T00:11:58;35.58;;;16.75;;
49396;SDS011;35615;41.410;2.194;2023-02-18T00:14:37;36.10;;;17.27;;
49396;SDS011;35615;41.410;2.194;2023-02-18T00:20:37;37.08;;;17.75;;
49396;SDS011;35615;41.410;2.194;2023-02-18T00:23:40;36.83;;;18.05;;
49396;SDS011;35615;41.410;2.194;2023-02-18T00:26:13;34.22;;;17.65;;
49396;SDS011;35615;41.410;2.194;2023-02-18T00:29:12;31.23;;;16.98;;
49396;SDS011;35615;41.410;2.194;2023-02-18T00:31:40;35.13;;;18.65;;
49396;SDS011;35615;41.410;2.194;2023-02-18T00:34:35;42.25;;;17.63;;
49396;SDS011;35615;41.410;2.194;2023-02-18T00:37:36;38.10;;;18.30;;
49396;SDS011;35615;41.410;2.194;2023-02-18T00:40:29;44.40;;;18.25;;
49396;SDS011;35615;41.410;2.194;2023-02-18T00:43:25;35.85;;;17.35;;
49396;SDS011;35615;41.410;2.194;2023-02-18T00:46:03;34.35;;;18.00;;
49396;SDS011;35615;41.410;2.194;2023-02-18T00:48:43;36.72;;;16.40;;
49396;SDS011;35615;41.410;2.194;2023-02-18T00:51:31;32.30;;;17.00;;
49396;SDS011;35615;41.410;2.194;2023-02-18T00:54:02;33.35;;;18.17;;
49396;SDS011;35615;41.410;2.194;2023-02-18T00:57:01;31.10;;;17.48;;
49396;SDS011;35615;41.410;2.194;2023-02-18T01:02:21;35.20;;;18.40;;
49396;SDS011;35615;41.410;2.194;2023-02-18T01:04:49;33.78;;;17.58;;
49396;SDS011;35615;41.410;2.194;2023-02-18T01:07:20;37.92;;;18.98;;
49396;SDS011;35615;41.410;2.194;2023-02-18T01:09:48;40.53;;;19.30;;
49396;SDS011;35615;41.410;2.194;2023-02-18T01:12:15;34.05;;;18.52;;
49396;SDS011;35615;41.410;2.194;2023-02-18T01:14:43;34.22;;;17.75;;
49396;SDS011;35615;41.410;2.194;2023-02-18T01:17:15;36.08;;;18.48;;
49396;SDS011;35615;41.410;2.194;2023-02-18T01:19:54;35.85;;;17.15;;
49396;SDS011;35615;41.410;2.194;2023-02-18T01:25:11;29.15;;;16.38;;
49396;SDS011;35615;41.410;2.194;2023-02-18T01:27:39;37.65;;;18.60;;
49396;SDS011;35615;41.410;2.194;2023-02-18T01:30:13;37.33;;;18.55;;
49396;SDS011;35615;41.410;2.194;2023-02-18T01:32:45;32.00;;;17.23;;
49396;SDS011;35615;41.410;2.194;2023-02-18T01:35:13;42.22;;;18.05;;
49396;SDS011;35615;41.410;2.194;2023-02-18T01:37:52;29.35;;;17.27;;
49396;SDS011;35615;41.410;2.194;2023-02-18T01:40:24;36.50;;;19.20;;
49396;SDS011;35615;41.410;2.194;2023-02-18T01:42:58;36.75;;;18.77;;
49396;SDS011;35615;41.410;2.194;2023-02-18T01:48:11;37.30;;;18.38;;
49396;SDS011;35615;41.410;2.194;2023-02-18T01:50:48;41.20;;;18.65;;
49396;SDS011;35615;41.410;2.194;2023-02-18T01:53:25;31.63;;;18.15;;
49396;SDS011;35615;41.410;2.194;2023-02-18T01:55:59;31.10;;;18.13;;
49396;SDS011;35615;41.410;2.194;2023-02-18T01:58:33;37.85;;;18.50;;
49396;SDS011;35615;41.410;2.194;2023-02-18T02:01:08;37.80;;;18.50;;
49396;SDS011;35615;41.410;2.194;2023-02-18T02:04:03;35.17;;;18.40;;
49396;SDS011;35615;41.410;2.194;2023-02-18T02:06:45;37.70;;;18.67;;
49396;SDS011;35615;41.410;2.194;2023-02-18T02:09:25;35.33;;;18.75;;
49396;SDS011;35615;41.410;2.194;2023-02-18T02:15:16;35.70;;;19.75;;
49396;SDS011;35615;41.410;2.194;2023-02-18T02:36:21;37.47;;;20.58;;
49396;SDS011;35615;41.410;2.194;2023-02-18T02:48:51;37.55;;;19.75;;
49396;SDS011;35615;41.410;2.194;2023-02-18T02:54:38;43.70;;;20.10;;
49396;SDS011;35615;41.410;2.194;2023-02-18T03:07:18;37.85;;;20.38;;
49396;SDS011;35615;41.410;2.194;2023-02-18T03:13:35;40.83;;;19.98;;
49396;SDS011;35615;41.410;2.194;2023-02-18T03:19:30;38.88;;;20.13;;
49396;SDS011;35615;41.410;2.194;2023-02-18T03:22:29;41.05;;;21.40;;
49396;SDS011;35615;41.410;2.194;2023-02-18T03:25:13;37.67;;;20.42;;
49396;SDS011;35615;41.410;2.194;2023-02-18T03:28:01;44.72;;;20.33;;
49396;SDS011;35615;41.410;2.194;2023-02-18T03:31:03;40.72;;;19.13;;
49396;SDS011;35615;41.410;2.194;2023-02-18T03:33:45;35.75;;;19.88;;
49396;SDS011;35615;41.410;2.194;2023-02-18T03:36:42;37.83;;;20.42;;
49396;SDS011;35615;41.410;2.194;2023-02-18T03:39:31;41.90;;;20.20;;
49396;SDS011;35615;41.410;2.194;2023-02-18T03:42:14;43.75;;;21.55;;
49396;SDS011;35615;41.410;2.194;2023-02-18T03:45:02;44.63;;;21.38;;
49396;SDS011;35615;41.410;2.194;2023-02-18T03:47:32;41.70;;;20.50;;
49396;SDS011;35615;41.410;2.194;2023-02-18T03:50:01;46.45;;;21.23;;
49396;SDS011;35615;41.410;2.194;2023-02-18T03:52:40;34.75;;;20.05;;
49396;SDS011;35615;41.410;2.194;2023-02-18T03:55:11;39.17;;;20.25;;
49396;SDS011;35615;41.410;2.194;2023-02-18T03:57:39;46.25;;;22.58;;
49396;SDS011;35615;41.410;2.194;2023-02-18T04:00:11;39.80;;;21.42;;
49396;SDS011;35615;41.410;2.194;2023-02-18T04:02:38;44.90;;;23.50;;
49396;SDS011;35615;41.410;2.194;2023-02-18T04:05:06;49.45;;;23.25;;
49396;SDS011;35615;41.410;2.194;2023-02-18T04:07:34;37.90;;;22.25;;
49396;SDS011;35615;41.410;2.194;2023-02-18T04:10:02;44.78;;;22.33;;
49396;SDS011;35615;41.410;2.194;2023-02-18T04:12:33;39.50;;;21.15;;
49396;SDS011;35615;41.410;2.194;2023-02-18T04:15:06;41.90;;;22.58;;
49396;SDS011;35615;41.410;2.194;2023-02-18T04:17:36;42.85;;;20.95;;
49396;SDS011;35615;41.410;2.194;2023-02-18T04:20:09;35.10;;;20.98;;
49396;SDS011;35615;41.410;2.194;2023-02-18T04:22:37;39.97;;;21.02;;
49396;SDS011;35615;41.410;2.194;2023-02-18T04:25:08;40.88;;;21.40;;
49396;SDS011;35615;41.410;2.194;2023-02-18T04:27:38;46.85;;;22.58;;
49396;SDS011;35615;41.410;2.194;2023-02-18T04:30:09;40.50;;;21.30;;
49396;SDS011;35615;41.410;2.194;2023-02-18T04:32:46;42.95;;;22.33;;
49396;SDS011;35615;41.410;2.194;2023-02-18T04:35:20;38.72;;;22.10;;
49396;SDS011;35615;41.410;2.194;2023-02-18T04:37:56;37.88;;;20.58;;
49396;SDS011;35615;41.410;2.194;2023-02-18T04:40:23;38.00;;;21.40;;
49396;SDS011;35615;41.410;2.194;2023-02-18T04:43:01;44.20;;;21.48;;
49396;SDS011;35615;41.410;2.194;2023-02-18T04:45:31;38.67;;;20.90;;
49396;SDS011;35615;41.410;2.194;2023-02-18T04:47:58;40.38;;;20.88;;
49396;SDS011;35615;41.410;2.194;2023-02-18T04:50:26;43.47;;;21.13;;
49396;SDS011;35615;41.410;2.194;2023-02-18T04:52:53;42.75;;;21.58;;
49396;SDS011;35615;41.410;2.194;2023-02-18T04:55:20;41.75;;;21.60;;
49396;SDS011;35615;41.410;2.194;2023-02-18T04:57:52;44.35;;;21.20;;
49396;SDS011;35615;41.410;2.194;2023-02-18T05:00:31;38.95;;;21.10;;
49396;SDS011;35615;41.410;2.194;2023-02-18T05:03:14;35.35;;;19.75;;
49396;SDS011;35615;41.410;2.194;2023-02-18T05:05:55;40.00;;;21.58;;
49396;SDS011;35615;41.410;2.194;2023-02-18T05:08:34;41.50;;;20.40;;
49396;SDS011;35615;41.410;2.194;2023-02-18T05:11:13;41.53;;;21.98;;
49396;SDS011;35615;41.410;2.194;2023-02-18T05:13:42;37.58;;;20.42;;
49396;SDS011;35615;41.410;2.194;2023-02-18T05:16:24;38.95;;;19.00;;
49396;SDS011;35615;41.410;2.194;2023-02-18T05:18:58;42.72;;;20.42;;
49396;SDS011;35615;41.410;2.194;2023-02-18T05:21:54;42.55;;;22.65;;
49396;SDS011;35615;41.410;2.194;2023-02-18T05:24:32;42.60;;;19.83;;
49396;SDS011;35615;41.410;2.194;2023-02-18T05:27:05;43.15;;;20.30;;
49396;SDS011;35615;41.410;2.194;2023-02-18T05:30:03;37.70;;;20.45;;
49396;SDS011;35615;41.410;2.194;2023-02-18T05:32:44;41.65;;;20.50;;
49396;SDS011;35615;41.410;2.194;2023-02-18T05:35:22;43.53;;;20.27;;
49396;SDS011;35615;41.410;2.194;2023-02-18T05:37:56;41.58;;;21.92;;
49396;SDS011;35615;41.410;2.194;2023-02-18T05:40:29;41.00;;;20.00;;
49396;SDS011;35615;41.410;2.194;2023-02-18T05:43:06;41.40;;;20.95;;
49396;SDS011;35615;41.410;2.194;2023-02-18T05:45:42;41.58;;;22.70;;
49396;SDS011;35615;41.410;2.194;2023-02-18T05:48:18;36.10;;;19.63;;
49396;SDS011;35615;41.410;2.194;2023-02-18T05:50:57;42.38;;;21.55;;
49396;SDS011;35615;41.410;2.194;2023-02-18T05:56:40;40.90;;;21.33;;
49396;SDS011;35615;41.410;2.194;2023-02-18T05:59:30;39.53;;;20.30;;
49396;SDS011;35615;41.410;2.194;2023-02-18T06:02:15;37.22;;;20.50;;
49396;SDS011;35615;41.410;2.194;2023-02-18T06:04:55;41.05;;;21.42;;
49396;SDS011;35615;41.410;2.194;2023-02-18T06:07:28;41.45;;;21.25;;
49396;SDS011;35615;41.410;2.194;2023-02-18T06:12:35;47.95;;;21.77;;
49396;SDS011;35615;41.410;2.194;2023-02-18T06:17:53;38.97;;;19.85;;
49396;SDS011;35615;41.410;2.194;2023-02-18T06:20:27;47.85;;;21.80;;
49396;SDS011;35615;41.410;2.194;2023-02-18T06:22:59;45.75;;;21.90;;
49396;SDS011;35615;41.410;2.194;2023-02-18T06:25:27;44.63;;;20.77;;
49396;SDS011;35615;41.410;2.194;2023-02-18T06:28:15;44.67;;;23.13;;
49396;SDS011;35615;41.410;2.194;2023-02-18T06:30:49;44.42;;;21.65;;
49396;SDS011;35615;41.410;2.194;2023-02-18T06:33:20;39.63;;;21.08;;
49396;SDS011;35615;41.410;2.194;2023-02-18T06:35:58;42.00;;;20.98;;
49396;SDS011;35615;41.410;2.194;2023-02-18T06:38:38;43.38;;;21.63;;
49396;SDS011;35615;41.410;2.194;2023-02-18T06:41:24;39.03;;;21.33;;
49396;SDS011;35615;41.410;2.194;2023-02-18T06:44:29;45.75;;;22.10;;
49396;SDS011;35615;41.410;2.194;2023-02-18T06:47:31;40.65;;;21.05;;
49396;SDS011;35615;41.410;2.194;2023-02-18T06:50:21;42.58;;;21.40;;
49396;SDS011;35615;41.410;2.194;2023-02-18T06:52:56;40.92;;;21.90;;
49396;SDS011;35615;41.410;2.194;2023-02-18T06:55:27;44.85;;;21.42;;
49396;SDS011;35615;41.410;2.194;2023-02-18T06:58:20;45.75;;;21.45;;
49396;SDS011;35615;41.410;2.194;2023-02-18T07:01:00;45.22;;;21.92;;
49396;SDS011;35615;41.410;2.194;2023-02-18T07:03:55;50.97;;;23.00;;
49396;SDS011;35615;41.410;2.194;2023-02-18T07:06:27;54.10;;;20.85;;
49396;SDS011;35615;41.410;2.194;2023-02-18T07:09:08;46.03;;;22.23;;
49396;SDS011;35615;41.410;2.194;2023-02-18T07:11:41;49.03;;;23.58;;
49396;SDS011;35615;41.410;2.194;2023-02-18T07:14:28;43.42;;;22.30;;
49396;SDS011;35615;41.410;2.194;2023-02-18T07:17:12;41.45;;;21.42;;
49396;SDS011;35615;41.410;2.194;2023-02-18T07:20:12;43.75;;;23.00;;
49396;SDS011;35615;41.410;2.194;2023-02-18T07:22:50;63.72;;;23.40;;
49396;SDS011;35615;41.410;2.194;2023-02-18T07:25:29;50.17;;;23.70;;
49396;SDS011;35615;41.410;2.194;2023-02-18T07:28:05;50.20;;;23.77;;
49396;SDS011;35615;41.410;2.194;2023-02-18T07:30:39;46.85;;;22.50;;
49396;SDS011;35615;41.410;2.194;2023-02-18T07:33:30;49.03;;;23.35;;
49396;SDS011;35615;41.410;2.194;2023-02-18T07:35:59;43.97;;;22.70;;
49396;SDS011;35615;41.410;2.194;2023-02-18T07:38:30;51.83;;;24.05;;
49396;SDS011;35615;41.410;2.194;2023-02-18T07:41:20;48.20;;;23.25;;
49396;SDS011;35615;41.410;2.194;2023-02-18T07:43:59;41.95;;;23.33;;
49396;SDS011;35615;41.410;2.194;2023-02-18T07:46:45;44.90;;;23.45;;
49396;SDS011;35615;41.410;2.194;2023-02-18T07:49:28;47.25;;;24.05;;
49396;SDS011;35615;41.410;2.194;2023-02-18T07:52:01;46.42;;;23.95;;
49396;SDS011;35615;41.410;2.194;2023-02-18T07:54:43;44.55;;;23.25;;
49396;SDS011;35615;41.410;2.194;2023-02-18T07:57:17;48.58;;;24.40;;
49396;SDS011;35615;41.410;2.194;2023-02-18T08:02:43;42.97;;;23.08;;
49396;SDS011;35615;41.410;2.194;2023-02-18T08:05:31;51.03;;;22.90;;
49396;SDS011;35615;41.410;2.194;2023-02-18T08:08:18;44.53;;;23.88;;
49396;SDS011;35615;41.410;2.194;2023-02-18T08:11:08;43.42;;;22.85;;
49396;SDS011;35615;41.410;2.194;2023-02-18T08:13:46;46.08;;;22.90;;
49396;SDS011;35615;41.410;2.194;2023-02-18T08:16:30;45.25;;;22.05;;
49396;SDS011;35615;41.410;2.194;2023-02-18T08:19:25;46.15;;;23.38;;
49396;SDS011;35615;41.410;2.194;2023-02-18T08:22:00;52.85;;;23.45;;
49396;SDS011;35615;41.410;2.194;2023-02-18T08:24:37;42.65;;;23.25;;
49396;SDS011;35615;41.410;2.194;2023-02-18T08:27:14;50.10;;;23.25;;
49396;SDS011;35615;41.410;2.194;2023-02-18T08:29:43;39.70;;;23.33;;
49396;SDS011;35615;41.410;2.194;2023-02-18T08:32:13;40.95;;;22.60;;
49396;SDS011;35615;41.410;2.194;2023-02-18T08:34:43;47.15;;;22.92;;
49396;SDS011;35615;41.410;2.194;2023-02-18T08:37:18;46.95;;;24.58;;
49396;SDS011;35615;41.410;2.194;2023-02-18T08:39:53;38.67;;;22.42;;
49396;SDS011;35615;41.410;2.194;2023-02-18T08:42:38;48.38;;;23.67;;
49396;SDS011;35615;41.410;2.194;2023-02-18T08:45:06;44.15;;;23.90;;
49396;SDS011;35615;41.410;2.194;2023-02-18T08:47:36;40.42;;;23.75;;
49396;SDS011;35615;41.410;2.194;2023-02-18T08:50:29;47.97;;;24.15;;
49396;SDS011;35615;41.410;2.194;2023-02-18T08:53:01;46.08;;;23.95;;
49396;SDS011;35615;41.410;2.194;2023-02-18T08:55:31;47.13;;;23.70;;
49396;SDS011;35615;41.410;2.194;2023-02-18T08:58:09;42.53;;;24.73;;
49396;SDS011;35615;41.410;2.194;2023-02-18T09:00:41;38.35;;;23.40;;
49396;SDS011;35615;41.410;2.194;2023-02-18T09:03:13;42.67;;;24.35;;
49396;SDS011;35615;41.410;2.194;2023-02-18T09:05:53;44.30;;;24.23;;
49396;SDS011;35615;41.410;2.194;2023-02-18T09:08:20;51.88;;;24.35;;
49396;SDS011;35615;41.410;2.194;2023-02-18T09:10:54;51.20;;;24.83;;
49396;SDS011;35615;41.410;2.194;2023-02-18T09:13:37;49.25;;;25.80;;
49396;SDS011;35615;41.410;2.194;2023-02-18T09:16:10;42.08;;;24.35;;
49396;SDS011;35615;41.410;2.194;2023-02-18T09:18:55;42.90;;;23.85;;
49396;SDS011;35615;41.410;2.194;2023-02-18T09:21:30;42.47;;;24.40;;
49396;SDS011;35615;41.410;2.194;2023-02-18T09:24:00;54.80;;;24.67;;
49396;SDS011;35615;41.410;2.194;2023-02-18T09:26:28;44.88;;;24.60;;
49396;SDS011;35615;41.410;2.194;2023-02-18T09:29:09;46.13;;;25.65;;
49396;SDS011;35615;41.410;2.194;2023-02-18T09:31:39;42.97;;;23.73;;
49396;SDS011;35615;41.410;2.194;2023-02-18T09:34:09;53.03;;;25.38;;
49396;SDS011;35615;41.410;2.194;2023-02-18T09:36:47;43.13;;;25.05;;
49396;SDS011;35615;41.410;2.194;2023-02-18T09:39:14;47.05;;;25.17;;
49396;SDS011;35615;41.410;2.194;2023-02-18T09:44:24;42.55;;;24.98;;
49396;SDS011;35615;41.410;2.194;2023-02-18T09:50:18;47.85;;;26.55;;
49396;SDS011;35615;41.410;2.194;2023-02-18T09:53:09;50.33;;;27.50;;
49396;SDS011;35615;41.410;2.194;2023-02-18T09:55:40;52.30;;;28.10;;
49396;SDS011;35615;41.410;2.194;2023-02-18T09:58:19;41.00;;;26.48;;
49396;SDS011;35615;41.410;2.194;2023-02-18T10:03:30;53.25;;;29.33;;
49396;SDS011;35615;41.410;2.194;2023-02-18T10:09:04;51.22;;;27.10;;
49396;SDS011;35615;41.410;2.194;2023-02-18T10:11:52;51.05;;;28.35;;
49396;SDS011;35615;41.410;2.194;2023-02-18T10:17:43;54.17;;;26.40;;
49396;SDS011;35615;41.410;2.194;2023-02-18T10:20:38;47.92;;;27.73;;
49396;SDS011;35615;41.410;2.194;2023-02-18T10:23:07;50.05;;;30.85;;
49396;SDS011;35615;41.410;2.194;2023-02-18T10:25:48;53.50;;;29.40;;
49396;SDS011;35615;41.410;2.194;2023-02-18T10:28:20;55.20;;;28.90;;
49396;SDS011;35615;41.410;2.194;2023-02-18T10:30:59;58.70;;;30.90;;
49396;SDS011;35615;41.410;2.194;2023-02-18T10:33:35;50.08;;;29.55;;
49396;SDS011;35615;41.410;2.194;2023-02-18T10:36:35;46.90;;;29.77;;
49396;SDS011;35615;41.410;2.194;2023-02-18T10:51:28;60.05;;;29.95;;
49396;SDS011;35615;41.410;2.194;2023-02-18T10:54:02;50.33;;;30.13;;
49396;SDS011;35615;41.410;2.194;2023-02-18T10:56:41;55.78;;;29.08;;
49396;SDS011;35615;41.410;2.194;2023-02-18T10:59:49;57.70;;;29.08;;
49396;SDS011;35615;41.410;2.194;2023-02-18T11:02:35;54.45;;;30.63;;
49396;SDS011;35615;41.410;2.194;2023-02-18T11:05:25;55.67;;;33.38;;
49396;SDS011;35615;41.410;2.194;2023-02-18T11:08:05;54.67;;;32.25;;
49396;SDS011;35615;41.410;2.194;2023-02-18T11:11:16;52.83;;;30.10;;
49396;SDS011;35615;41.410;2.194;2023-02-18T11:13:56;47.03;;;28.30;;
49396;SDS011;35615;41.410;2.194;2023-02-18T11:16:43;48.72;;;29.33;;
49396;SDS011;35615;41.410;2.194;2023-02-18T11:19:33;49.05;;;27.92;;
49396;SDS011;35615;41.410;2.194;2023-02-18T11:22:17;55.70;;;28.88;;
49396;SDS011;35615;41.410;2.194;2023-02-18T11:30:58;44.15;;;26.23;;
49396;SDS011;35615;41.410;2.194;2023-02-18T11:33:52;50.78;;;24.50;;
49396;SDS011;35615;41.410;2.194;2023-02-18T11:36:32;43.25;;;22.52;;
49396;SDS011;35615;41.410;2.194;2023-02-18T11:42:01;42.60;;;22.60;;
49396;SDS011;35615;41.410;2.194;2023-02-18T11:44:54;40.20;;;22.83;;
49396;SDS011;35615;41.410;2.194;2023-02-18T11:47:41;36.35;;;20.45;;
49396;SDS011;35615;41.410;2.194;2023-02-18T11:52:50;34.85;;;20.08;;
49396;SDS011;35615;41.410;2.194;2023-02-18T11:55:40;37.40;;;21.83;;
49396;SDS011;35615;41.410;2.194;2023-02-18T11:58:39;46.40;;;22.38;;
49396;SDS011;35615;41.410;2.194;2023-02-18T12:10:11;39.45;;;19.42;;
49396;SDS011;35615;41.410;2.194;2023-02-18T12:13:04;34.03;;;20.42;;
49396;SDS011;35615;41.410;2.194;2023-02-18T12:16:02;41.67;;;24.55;;
49396;SDS011;35615;41.410;2.194;2023-02-18T12:19:12;48.67;;;27.60;;
49396;SDS011;35615;41.410;2.194;2023-02-18T12:35:23;34.30;;;21.10;;
49396;SDS011;35615;41.410;2.194;2023-02-18T12:44:31;34.53;;;23.77;;
49396;SDS011;35615;41.410;2.194;2023-02-18T12:51:12;35.75;;;20.10;;
49396;SDS011;35615;41.410;2.194;2023-02-18T13:06:21;27.83;;;17.73;;
49396;SDS011;35615;41.410;2.194;2023-02-18T13:09:15;24.60;;;16.25;;
49396;SDS011;35615;41.410;2.194;2023-02-18T13:18:43;23.98;;;16.42;;
49396;SDS011;35615;41.410;2.194;2023-02-18T13:21:23;28.42;;;14.88;;
49396;SDS011;35615;41.410;2.194;2023-02-18T13:24:09;24.92;;;15.20;;
49396;SDS011;35615;41.410;2.194;2023-02-18T13:30:33;22.45;;;12.52;;
49396;SDS011;35615;41.410;2.194;2023-02-18T13:36:33;20.88;;;15.38;;
49396;SDS011;35615;41.410;2.194;2023-02-18T13:39:29;24.77;;;14.85;;
49396;SDS011;35615;41.410;2.194;2023-02-18T13:42:34;22.08;;;13.07;;
49396;SDS011;35615;41.410;2.194;2023-02-18T13:54:37;19.10;;;12.77;;
49396;SDS011;35615;41.410;2.194;2023-02-18T14:00:24;26.48;;;16.25;;
49396;SDS011;35615;41.410;2.194;2023-02-18T14:03:49;21.38;;;13.48;;
49396;SDS011;35615;41.410;2.194;2023-02-18T14:06:32;21.60;;;13.20;;
49396;SDS011;35615;41.410;2.194;2023-02-18T14:12:14;20.80;;;13.00;;
49396;SDS011;35615;41.410;2.194;2023-02-18T14:14:51;19.60;;;12.45;;
49396;SDS011;35615;41.410;2.194;2023-02-18T14:26:08;12.75;;;9.23;;
49396;SDS011;35615;41.410;2.194;2023-02-18T14:31:53;15.73;;;7.53;;
49396;SDS011;35615;41.410;2.194;2023-02-18T14:34:52;11.57;;;7.50;;
49396;SDS011;35615;41.410;2.194;2023-02-18T14:40:46;15.35;;;6.88;;
49396;SDS011;35615;41.410;2.194;2023-02-18T14:50:20;8.73;;;5.57;;
49396;SDS011;35615;41.410;2.194;2023-02-18T14:53:06;11.63;;;5.50;;
49396;SDS011;35615;41.410;2.194;2023-02-18T14:56:21;11.15;;;5.88;;
49396;SDS011;35615;41.410;2.194;2023-02-18T14:59:10;9.05;;;4.40;;
49396;SDS011;35615;41.410;2.194;2023-02-18T15:01:58;10.07;;;4.82;;
49396;SDS011;35615;41.410;2.194;2023-02-18T15:05:00;13.02;;;5.38;;
49396;SDS011;35615;41.410;2.194;2023-02-18T15:08:11;13.00;;;4.45;;
49396;SDS011;35615;41.410;2.194;2023-02-18T15:11:12;11.02;;;4.70;;
49396;SDS011;35615;41.410;2.194;2023-02-18T15:14:02;17.23;;;5.80;;
49396;SDS011;35615;41.410;2.194;2023-02-18T15:16:55;12.30;;;5.50;;
49396;SDS011;35615;41.410;2.194;2023-02-18T15:19:51;9.93;;;6.22;;
49396;SDS011;35615;41.410;2.194;2023-02-18T15:22:59;5.93;;;3.88;;
49396;SDS011;35615;41.410;2.194;2023-02-18T15:26:11;8.60;;;3.85;;
49396;SDS011;35615;41.410;2.194;2023-02-18T15:28:59;10.00;;;4.18;;
49396;SDS011;35615;41.410;2.194;2023-02-18T15:32:14;7.07;;;3.47;;
49396;SDS011;35615;41.410;2.194;2023-02-18T15:34:55;9.60;;;4.10;;
49396;SDS011;35615;41.410;2.194;2023-02-18T15:38:15;9.57;;;4.28;;
49396;SDS011;35615;41.410;2.194;2023-02-18T15:41:01;6.18;;;3.55;;
49396;SDS011;35615;41.410;2.194;2023-02-18T15:43:49;8.70;;;3.75;;
49396;SDS011;35615;41.410;2.194;2023-02-18T15:46:44;8.77;;;3.97;;
49396;SDS011;35615;41.410;2.194;2023-02-18T15:49:21;11.80;;;4.10;;
49396;SDS011;35615;41.410;2.194;2023-02-18T15:52:15;9.98;;;4.20;;
49396;SDS011;35615;41.410;2.194;2023-02-18T15:58:14;10.50;;;3.95;;
49396;SDS011;35615;41.410;2.194;2023-02-18T16:00:53;4.45;;;3.47;;
49396;SDS011;35615;41.410;2.194;2023-02-18T16:03:41;6.78;;;3.85;;
49396;SDS011;35615;41.410;2.194;2023-02-18T16:06:25;8.75;;;5.20;;
49396;SDS011;35615;41.410;2.194;2023-02-18T16:09:29;9.30;;;4.50;;
49396;SDS011;35615;41.410;2.194;2023-02-18T16:15:26;9.13;;;5.10;;
49396;SDS011;35615;41.410;2.194;2023-02-18T16:21:05;8.87;;;5.00;;
49396;SDS011;35615;41.410;2.194;2023-02-18T16:23:43;9.75;;;5.60;;
49396;SDS011;35615;41.410;2.194;2023-02-18T16:32:46;13.97;;;5.10;;
49396;SDS011;35615;41.410;2.194;2023-02-18T16:35:21;11.52;;;5.53;;
49396;SDS011;35615;41.410;2.194;2023-02-18T16:38:03;9.85;;;5.35;;
49396;SDS011;35615;41.410;2.194;2023-02-18T16:41:10;9.63;;;5.95;;
49396;SDS011;35615;41.410;2.194;2023-02-18T16:44:00;10.18;;;6.30;;
49396;SDS011;35615;41.410;2.194;2023-02-18T16:46:47;17.05;;;6.78;;
49396;SDS011;35615;41.410;2.194;2023-02-18T16:52:12;12.67;;;6.83;;
49396;SDS011;35615;41.410;2.194;2023-02-18T16:54:45;13.55;;;7.43;;
49396;SDS011;35615;41.410;2.194;2023-02-18T16:57:25;18.58;;;6.43;;
49396;SDS011;35615;41.410;2.194;2023-02-18T16:59:55;13.13;;;6.82;;
49396;SDS011;35615;41.410;2.194;2023-02-18T17:05:56;13.68;;;6.53;;
49396;SDS011;35615;41.410;2.194;2023-02-18T17:08:24;22.40;;;8.57;;
49396;SDS011;35615;41.410;2.194;2023-02-18T17:13:57;12.63;;;5.85;;
49396;SDS011;35615;41.410;2.194;2023-02-18T17:19:58;13.00;;;6.45;;
49396;SDS011;35615;41.410;2.194;2023-02-18T17:22:26;13.52;;;6.50;;
49396;SDS011;35615;41.410;2.194;2023-02-18T17:25:11;17.38;;;6.10;;
49396;SDS011;35615;41.410;2.194;2023-02-18T17:31:19;11.75;;;5.95;;
49396;SDS011;35615;41.410;2.194;2023-02-18T17:34:04;13.13;;;5.72;;
49396;SDS011;35615;41.410;2.194;2023-02-18T17:36:42;9.80;;;6.10;;
49396;SDS011;35615;41.410;2.194;2023-02-18T17:42:47;12.15;;;5.60;;
49396;SDS011;35615;41.410;2.194;2023-02-18T17:45:22;9.98;;;5.15;;
49396;SDS011;35615;41.410;2.194;2023-02-18T17:48:06;16.08;;;5.63;;
49396;SDS011;35615;41.410;2.194;2023-02-18T17:51:06;11.10;;;4.80;;
49396;SDS011;35615;41.410;2.194;2023-02-18T17:53:37;7.35;;;4.78;;
49396;SDS011;35615;41.410;2.194;2023-02-18T17:56:08;12.40;;;5.35;;
49396;SDS011;35615;41.410;2.194;2023-02-18T17:58:53;6.80;;;3.97;;
49396;SDS011;35615;41.410;2.194;2023-02-18T18:01:26;12.07;;;5.87;;
49396;SDS011;35615;41.410;2.194;2023-02-18T18:04:01;16.08;;;5.47;;
49396;SDS011;35615;41.410;2.194;2023-02-18T18:06:38;11.52;;;4.85;;
49396;SDS011;35615;41.410;2.194;2023-02-18T18:09:05;6.25;;;4.35;;
49396;SDS011;35615;41.410;2.194;2023-02-18T18:14:12;8.30;;;4.60;;
49396;SDS011;35615;41.410;2.194;2023-02-18T18:16:49;11.77;;;5.70;;
49396;SDS011;35615;41.410;2.194;2023-02-18T18:19:24;7.80;;;4.75;;
49396;SDS011;35615;41.410;2.194;2023-02-18T18:22:01;8.73;;;4.28;;
49396;SDS011;35615;41.410;2.194;2023-02-18T18:24:33;18.20;;;5.57;;
49396;SDS011;35615;41.410;2.194;2023-02-18T18:27:03;9.07;;;5.55;;
49396;SDS011;35615;41.410;2.194;2023-02-18T18:29:38;13.60;;;6.90;;
49396;SDS011;35615;41.410;2.194;2023-02-18T18:32:22;12.00;;;5.97;;
49396;SDS011;35615;41.410;2.194;2023-02-18T18:34:52;12.27;;;6.88;;
49396;SDS011;35615;41.410;2.194;2023-02-18T18:37:23;19.40;;;7.25;;
49396;SDS011;35615;41.410;2.194;2023-02-18T18:39:53;15.73;;;6.70;;
49396;SDS011;35615;41.410;2.194;2023-02-18T18:42:21;15.00;;;7.47;;
49396;SDS011;35615;41.410;2.194;2023-02-18T18:44:48;18.42;;;6.70;;
49396;SDS011;35615;41.410;2.194;2023-02-18T18:47:18;18.00;;;6.78;;
49396;SDS011;35615;41.410;2.194;2023-02-18T18:49:49;14.65;;;7.70;;
49396;SDS011;35615;41.410;2.194;2023-02-18T18:52:28;18.45;;;7.35;;
49396;SDS011;35615;41.410;2.194;2023-02-18T18:54:58;12.40;;;8.32;;
49396;SDS011;35615;41.410;2.194;2023-02-18T18:57:32;13.50;;;7.22;;
49396;SDS011;35615;41.410;2.194;2023-02-18T19:00:16;13.32;;;7.15;;
49396;SDS011;35615;41.410;2.194;2023-02-18T19:02:47;13.47;;;7.33;;
49396;SDS011;35615;41.410;2.194;2023-02-18T19:05:33;13.40;;;7.65;;
49396;SDS011;35615;41.410;2.194;2023-02-18T19:08:07;14.02;;;7.50;;
49396;SDS011;35615;41.410;2.194;2023-02-18T19:10:41;16.88;;;8.05;;
49396;SDS011;35615;41.410;2.194;2023-02-18T19:13:17;16.00;;;9.02;;
49396;SDS011;35615;41.410;2.194;2023-02-18T19:15:52;15.63;;;7.93;;
49396;SDS011;35615;41.410;2.194;2023-02-18T19:18:28;16.20;;;7.22;;
49396;SDS011;35615;41.410;2.194;2023-02-18T19:21:01;12.63;;;7.28;;
49396;SDS011;35615;41.410;2.194;2023-02-18T19:23:42;12.50;;;7.80;;
49396;SDS011;35615;41.410;2.194;2023-02-18T19:26:19;22.20;;;8.00;;
49396;SDS011;35615;41.410;2.194;2023-02-18T19:29:15;16.33;;;7.70;;
49396;SDS011;35615;41.410;2.194;2023-02-18T19:31:48;18.55;;;8.35;;
49396;SDS011;35615;41.410;2.194;2023-02-18T19:34:22;26.52;;;8.70;;
49396;SDS011;35615;41.410;2.194;2023-02-18T19:37:16;15.60;;;8.83;;
49396;SDS011;35615;41.410;2.194;2023-02-18T19:39:55;23.45;;;8.30;;
49396;SDS011;35615;41.410;2.194;2023-02-18T19:42:34;24.30;;;9.90;;
49396;SDS011;35615;41.410;2.194;2023-02-18T19:45:19;22.08;;;9.73;;
49396;SDS011;35615;41.410;2.194;2023-02-18T19:48:05;21.10;;;8.90;;
49396;SDS011;35615;41.410;2.194;2023-02-18T19:50:34;20.02;;;10.60;;
49396;SDS011;35615;41.410;2.194;2023-02-18T19:53:29;26.33;;;10.00;;